Climax, Colorado
Current Conditions -  °F | °C
As of 2:37 PM on Thursday 23 Oct 2014 (Local Time) from KCCU Reporting Station
Scattered Clouds Scattered Clouds  
Wind Chill: 41°   Ceiling: Unl
Heat Index: 46°   Visibility: 10mi
Dew Point: 25°   Wind: 13mph
Humidity: 43%   Direction: 260°W
Pressure: 30.51"   Gusts: 20mph
Location:  39.38°N, 106.18°W
Report Text: KCCU 232037Z AUTO 26011G17KT 10SM SCT039 08/M04 A3051 RMK AO2
Loading
Personal Weather Stations






























Interactive Weather Map
Tropical Storm Tracking
New forecast layout! Learn more

10-Day Weather Forecast

Advertisements
Track Severe Weather on mobile